ACK weather

Nantucket Memorial Airport
Nantucket, Massachusetts, United States

Public forecast

Using degrees Fahrenheit for public forecast. Weather courtesy of forecast.io.

METAR (pilot weather report)

Retrieved 2019/06/17 23:53 UTC (8 minutes ago):

KACK 172353Z 00000KT 10SM CLR 15/13 A3000 RMK AO2 SLP157 T01500128 10222 20150 53001

TAF (pilot weather forecast)

Forecast is more than 12 hours old.

Retrieved 2019/06/17 00:22 UTC (24 hours ago):

TAF KACK 172320Z 1800/1824 13004KT P6SM BKN250 FM180300 14005KT P6SM BKN008 FM180500 17005KT 1SM BR OVC003 FM180700 14006KT 1/2SM FG VCSH OVC003 FM181500 11009KT 3SM BR VCSH OVC008